createdAt,value
2023-04-01T00:01:01.445Z,82.69
2023-04-01T00:03:34.524Z,83.62
2023-04-01T00:06:08.155Z,83.33
2023-04-01T00:08:40.637Z,83.63
2023-04-01T00:11:13.412Z,83.92
2023-04-01T00:13:46.083Z,84.42
2023-04-01T00:16:22.256Z,84.69
2023-04-01T00:18:55.422Z,85.44
2023-04-01T00:21:27.974Z,85.83
2023-04-01T00:24:00.374Z,86.05
2023-04-01T00:26:32.889Z,86.05
2023-04-01T00:29:05.596Z,86.41
2023-04-01T00:31:38.764Z,86.23
2023-04-01T00:34:11.267Z,85.70
2023-04-01T00:36:43.939Z,85.94
2023-04-01T00:39:16.363Z,86.26
2023-04-01T00:41:49.518Z,85.68
2023-04-01T00:44:26.580Z,85.38
2023-04-01T00:46:59.425Z,85.59
2023-04-01T00:49:36.133Z,85.64
2023-04-01T00:52:10.946Z,85.99
2023-04-01T00:54:43.263Z,85.97
2023-04-01T00:57:22.242Z,85.58
2023-04-01T00:59:57.372Z,85.43
2023-04-01T01:02:30.051Z,85.27
2023-04-01T01:05:02.942Z,84.87
2023-04-01T01:07:43.930Z,85.11
2023-04-01T01:10:23.129Z,85.07
2023-04-01T01:13:07.419Z,84.90
2023-04-01T01:15:47.289Z,85.08
2023-04-01T01:18:26.976Z,84.82
2023-04-01T01:21:23.681Z,84.68
2023-04-01T01:24:39.269Z,84.71
2023-04-01T01:27:13.817Z,84.60
2023-04-01T01:30:19.656Z,84.68
2023-04-01T01:33:22.658Z,85.09
2023-04-01T01:35:58.491Z,85.31
2023-04-01T01:38:34.837Z,84.84
2023-04-01T01:41:11.752Z,85.20
2023-04-01T01:43:48.333Z,85.24
2023-04-01T01:46:25.846Z,85.06
2023-04-01T01:49:00.993Z,85.66
2023-04-01T01:51:34.734Z,86.00
2023-04-01T01:54:07.263Z,85.31
2023-04-01T01:56:41.308Z,84.96
2023-04-01T01:59:16.752Z,84.38
2023-04-01T02:01:53.353Z,84.83
2023-04-01T02:04:28.166Z,84.64
2023-04-01T02:07:04.834Z,84.55
2023-04-01T02:09:37.794Z,83.92
2023-04-01T02:12:14.032Z,84.28
2023-04-01T02:14:53.755Z,84.78
2023-04-01T02:17:28.951Z,84.89
2023-04-01T02:20:06.650Z,85.15
2023-04-01T02:22:43.092Z,85.19
2023-04-01T02:25:20.126Z,85.03
2023-04-01T02:27:52.870Z,84.65
2023-04-01T02:30:27.779Z,84.47
2023-04-01T02:33:01.187Z,84.40
2023-04-01T02:35:34.874Z,84.35
2023-04-01T02:38:08.999Z,84.64
2023-04-01T02:40:51.661Z,85.06
2023-04-01T02:43:25.843Z,84.66
2023-04-01T02:45:58.180Z,84.64
2023-04-01T02:48:30.846Z,84.43
2023-04-01T02:51:03.673Z,84.62
2023-04-01T02:53:36.329Z,84.98
2023-04-01T02:56:09.374Z,84.80
2023-04-01T02:58:41.877Z,84.64
2023-04-01T03:01:14.356Z,84.62
2023-04-01T03:03:47.102Z,84.69
2023-04-01T03:06:20.049Z,84.91
2023-04-01T03:08:53.444Z,84.79
2023-04-01T03:11:27.324Z,84.72
2023-04-01T03:13:59.753Z,84.91
2023-04-01T03:16:32.268Z,85.12
2023-04-01T03:19:04.983Z,84.90
2023-04-01T03:21:38.037Z,84.74
2023-04-01T03:24:11.308Z,84.59
2023-04-01T03:26:44.259Z,84.43
2023-04-01T03:29:21.538Z,84.64
2023-04-01T03:31:59.947Z,85.28
2023-04-01T03:34:32.547Z,85.36
2023-04-01T03:37:05.265Z,85.21
2023-04-01T03:39:38.064Z,85.05
2023-04-01T03:42:10.968Z,85.31
2023-04-01T03:44:43.514Z,85.60
2023-04-01T03:47:16.482Z,85.57
2023-04-01T03:49:50.024Z,85.32
2023-04-01T03:52:22.980Z,85.32
2023-04-01T03:54:56.681Z,85.37
2023-04-01T03:57:29.609Z,85.12
2023-04-01T04:00:03.314Z,84.89
2023-04-01T04:02:46.741Z,84.79
2023-04-01T04:05:21.494Z,84.95
2023-04-01T04:07:55.218Z,84.60
2023-04-01T04:10:28.392Z,84.87
2023-04-01T04:13:01.340Z,84.87
2023-04-01T04:15:35.101Z,84.24
2023-04-01T04:18:08.308Z,83.61
2023-04-01T04:20:46.698Z,83.76
2023-04-01T04:23:19.933Z,83.54
2023-04-01T04:26:01.223Z,83.79
2023-04-01T04:28:34.731Z,83.70
2023-04-01T04:31:09.225Z,83.34
2023-04-01T04:33:41.733Z,83.51
2023-04-01T04:36:14.427Z,84.03
2023-04-01T04:38:47.555Z,84.20
2023-04-01T04:41:23.476Z,84.51
2023-04-01T04:43:59.618Z,84.09
2023-04-01T04:46:32.910Z,84.61
2023-04-01T04:49:14.584Z,84.17
2023-04-01T04:51:47.481Z,83.71
2023-04-01T04:54:21.582Z,83.79
2023-04-01T04:57:00.571Z,83.87
2023-04-01T04:59:34.842Z,83.50
2023-04-01T05:02:30.148Z,83.38
2023-04-01T05:05:03.203Z,83.27
2023-04-01T05:07:38.363Z,83.78
2023-04-01T05:10:12.240Z,84.09
2023-04-01T05:12:45.105Z,84.18
2023-04-01T05:15:22.708Z,84.32
2023-04-01T05:17:56.498Z,84.33
2023-04-01T05:20:28.800Z,84.77
2023-04-01T05:23:01.945Z,84.45
2023-04-01T05:25:35.921Z,84.34
2023-04-01T05:28:09.101Z,84.22
2023-04-01T05:30:43.982Z,84.43
2023-04-01T05:33:28.014Z,83.72
2023-04-01T05:36:09.881Z,84.14
2023-04-01T05:38:43.590Z,84.30
2023-04-01T05:41:18.329Z,84.39
2023-04-01T05:43:51.244Z,84.31
2023-04-01T05:46:42.552Z,83.83
2023-04-01T05:49:27.707Z,84.29
2023-04-01T05:52:01.738Z,84.79
2023-04-01T05:54:35.505Z,85.04
2023-04-01T05:57:08.549Z,85.36
2023-04-01T05:59:41.745Z,85.11
2023-04-01T06:02:14.702Z,85.10
2023-04-01T06:04:48.097Z,85.26
2023-04-01T06:07:21.591Z,85.26
2023-04-01T06:09:53.973Z,85.51
2023-04-01T06:12:47.647Z,85.45
2023-04-01T06:15:33.498Z,85.10
2023-04-01T06:18:38.259Z,85.01
2023-04-01T06:21:29.549Z,85.18
2023-04-01T06:24:27.848Z,85.26
2023-04-01T06:27:05.289Z,85.29
2023-04-01T06:29:52.988Z,85.20
2023-04-01T06:32:40.026Z,85.59
2023-04-01T06:35:30.181Z,85.71
2023-04-01T06:38:41.642Z,85.78
2023-04-01T06:41:32.940Z,85.97
2023-04-01T06:44:20.489Z,86.07
2023-04-01T06:47:30.631Z,86.08
2023-04-01T06:50:28.747Z,85.68
2023-04-01T06:53:23.700Z,85.42
2023-04-01T06:56:19.410Z,85.28
2023-04-01T06:59:08.233Z,85.39
2023-04-01T07:01:45.041Z,84.94
2023-04-01T07:04:21.907Z,85.24
2023-04-01T07:06:59.666Z,84.68
2023-04-01T07:09:36.935Z,85.26
2023-04-01T07:12:42.250Z,85.64
2023-04-01T07:15:58.810Z,85.61
2023-04-01T07:18:39.880Z,86.03
2023-04-01T07:21:21.813Z,86.46
2023-04-01T07:23:57.143Z,86.44
2023-04-01T07:26:38.643Z,86.82
2023-04-01T07:29:20.918Z,87.56
2023-04-01T07:32:14.332Z,87.37
2023-04-01T07:34:57.833Z,87.71
2023-04-01T07:37:35.394Z,87.81
2023-04-01T07:40:19.429Z,88.15
2023-04-01T07:43:10.071Z,88.47
2023-04-01T07:45:53.143Z,88.78
2023-04-01T07:48:34.063Z,88.85
2023-04-01T07:51:14.549Z,88.38
2023-04-01T07:53:54.634Z,88.19
2023-04-01T07:56:34.652Z,87.72
2023-04-01T07:59:14.148Z,87.44
2023-04-01T08:02:24.241Z,87.85
2023-04-01T08:05:07.058Z,88.03
2023-04-01T08:07:47.931Z,88.77
2023-04-01T08:10:54.122Z,88.99
2023-04-01T08:13:55.509Z,89.06
2023-04-01T08:16:54.619Z,89.00
2023-04-01T08:19:42.995Z,88.89
2023-04-01T08:22:22.368Z,89.14
2023-04-01T08:24:58.399Z,88.61
2023-04-01T08:27:39.571Z,87.94
2023-04-01T08:30:23.621Z,87.81
2023-04-01T08:33:02.801Z,88.01
2023-04-01T08:35:40.724Z,87.20
2023-04-01T08:38:20.229Z,86.93
2023-04-01T08:41:00.853Z,86.84
2023-04-01T08:44:20.509Z,86.36
2023-04-01T08:47:28.569Z,85.73
2023-04-01T08:50:33.150Z,85.93
2023-04-01T08:53:37.737Z,84.74
2023-04-01T08:56:18.838Z,84.73
2023-04-01T08:59:07.323Z,84.70
2023-04-01T09:02:08.753Z,83.91
2023-04-01T09:05:31.505Z,83.32
2023-04-01T09:08:19.505Z,83.64
2023-04-01T09:11:10.373Z,83.98
2023-04-01T09:14:28.737Z,84.45
2023-04-01T09:17:38.055Z,84.77
2023-04-01T09:20:48.281Z,84.52
2023-04-01T09:23:39.181Z,83.85
2023-04-01T09:26:34.518Z,83.75
2023-04-01T09:29:21.752Z,83.55
2023-04-01T09:32:13.369Z,84.06
2023-04-01T09:35:25.714Z,82.86
2023-04-01T09:38:15.079Z,82.69
2023-04-01T09:40:56.997Z,83.12
2023-04-01T09:44:02.836Z,83.16
2023-04-01T09:46:56.746Z,82.47
2023-04-01T09:49:48.319Z,83.15
2023-04-01T09:52:34.293Z,83.29
2023-04-01T09:55:56.596Z,83.56
2023-04-01T09:58:52.834Z,83.40
2023-04-01T10:01:59.797Z,82.39
2023-04-01T10:05:02.918Z,82.07
2023-04-01T10:08:07.733Z,81.54
2023-04-01T10:11:28.340Z,81.30
2023-04-01T10:14:28.551Z,81.49
2023-04-01T10:17:31.934Z,81.49
2023-04-01T10:20:38.177Z,81.23
2023-04-01T10:23:29.955Z,81.92
2023-04-01T10:26:37.605Z,82.12
2023-04-01T10:30:21.018Z,81.40
2023-04-01T10:33:38.272Z,81.44
2023-04-01T10:36:50.250Z,81.30
2023-04-01T10:40:05.038Z,80.93
2023-04-01T10:43:32.654Z,81.27
2023-04-01T10:46:50.157Z,81.70
2023-04-01T10:49:46.752Z,81.51
2023-04-01T10:52:49.219Z,80.63
2023-04-01T10:55:49.196Z,81.54
2023-04-01T10:59:02.772Z,81.75
2023-04-01T11:02:53.542Z,81.85
2023-04-01T11:06:28.237Z,82.06
2023-04-01T11:09:39.934Z,82.07
2023-04-01T11:12:51.335Z,82.16
2023-04-01T11:15:59.795Z,82.11
2023-04-01T11:19:29.942Z,81.79
2023-04-01T11:22:24.407Z,81.10
2023-04-01T11:25:31.469Z,81.32
2023-04-01T11:28:52.578Z,81.05
2023-04-01T11:31:44.524Z,80.56
2023-04-01T11:34:27.095Z,80.46
2023-04-01T11:37:13.348Z,80.67
2023-04-01T11:40:02.301Z,81.16
2023-04-01T11:43:00.102Z,81.36
2023-04-01T11:46:17.445Z,80.85
2023-04-01T11:49:03.231Z,80.63
2023-04-01T11:52:00.483Z,81.05
2023-04-01T11:54:49.765Z,80.64
2023-04-01T11:57:48.328Z,80.92
2023-04-01T12:00:36.616Z,80.93
2023-04-01T12:03:32.021Z,80.94
2023-04-01T12:06:04.184Z,81.13
2023-04-01T12:08:42.880Z,80.41
2023-04-01T12:11:23.717Z,80.49
2023-04-01T12:14:05.468Z,80.61
2023-04-01T12:17:03.199Z,80.66
2023-04-01T12:19:46.813Z,80.18
2023-04-01T12:22:41.248Z,80.11
2023-04-01T12:25:30.778Z,80.28
2023-04-01T12:28:15.616Z,80.65
2023-04-01T12:31:03.887Z,80.93
2023-04-01T12:34:24.077Z,81.01
2023-04-01T12:37:09.797Z,80.59
2023-04-01T12:39:54.231Z,80.75
2023-04-01T12:42:39.109Z,81.07
2023-04-01T12:45:29.245Z,81.48
2023-04-01T12:48:37.253Z,81.10
2023-04-01T12:51:24.358Z,80.72
2023-04-01T12:54:18.906Z,80.37
2023-04-01T12:57:05.842Z,80.60
2023-04-01T12:59:58.580Z,80.88
2023-04-01T13:02:42.478Z,80.87
2023-04-01T13:05:29.342Z,80.21
2023-04-01T13:08:08.244Z,80.13
2023-04-01T13:10:58.179Z,80.90
2023-04-01T13:13:58.436Z,81.44
2023-04-01T13:16:34.543Z,81.83
2023-04-01T13:19:12.358Z,81.46
2023-04-01T13:21:56.629Z,81.18
2023-04-01T13:24:53.488Z,80.57
2023-04-01T13:27:33.081Z,80.27
2023-04-01T13:30:24.558Z,79.87
2023-04-01T13:33:05.094Z,79.65
2023-04-01T13:35:47.676Z,80.17
2023-04-01T13:38:39.540Z,80.00
2023-04-01T13:41:23.879Z,79.20
2023-04-01T13:44:02.872Z,78.80
2023-04-01T13:46:54.604Z,78.97
2023-04-01T13:50:02.335Z,77.84
2023-04-01T13:53:16.669Z,77.30
2023-04-01T13:56:05.368Z,77.57
2023-04-01T13:58:51.583Z,77.89
2023-04-01T14:01:33.729Z,78.30
2023-04-01T14:04:36.103Z,77.04
2023-04-01T14:07:34.988Z,76.74
2023-04-01T14:10:27.770Z,76.99
2023-04-01T14:13:09.235Z,76.35
2023-04-01T14:15:52.883Z,76.27
2023-04-01T14:18:43.962Z,76.27
2023-04-01T14:21:25.659Z,75.56
2023-04-01T14:24:22.640Z,75.11
2023-04-01T14:27:34.891Z,75.06
2023-04-01T14:30:29.532Z,74.72
2023-04-01T14:33:09.353Z,74.51
2023-04-01T14:35:48.643Z,73.85
2023-04-01T14:38:37.907Z,73.84
2023-04-01T14:41:23.040Z,73.76
2023-04-01T14:44:04.978Z,74.02
2023-04-01T14:47:16.139Z,74.04
2023-04-01T14:49:51.885Z,73.99
2023-04-01T14:52:30.849Z,74.27
2023-04-01T14:55:13.423Z,74.07
2023-04-01T14:57:59.759Z,73.82
2023-04-01T15:00:49.996Z,74.19
2023-04-01T15:03:28.784Z,74.82
2023-04-01T15:06:24.035Z,74.83
2023-04-01T15:09:05.055Z,74.70
2023-04-01T15:11:50.542Z,74.75
2023-04-01T15:14:42.620Z,74.41
2023-04-01T15:17:39.650Z,74.72
2023-04-01T15:20:39.089Z,75.03
2023-04-01T15:23:28.135Z,75.01
2023-04-01T15:26:30.658Z,75.03
2023-04-01T15:29:20.157Z,74.71
2023-04-01T15:31:59.205Z,74.82
2023-04-01T15:34:38.499Z,74.56
2023-04-01T15:37:21.819Z,74.12
2023-04-01T15:40:00.051Z,74.48
2023-04-01T15:42:54.500Z,74.35
2023-04-01T15:45:44.254Z,74.97
2023-04-01T15:48:29.680Z,74.94
2023-04-01T15:51:13.953Z,75.15
2023-04-01T15:53:59.201Z,74.66
2023-04-01T15:56:45.903Z,74.61
2023-04-01T15:59:32.351Z,74.44
2023-04-01T16:02:16.765Z,74.64
2023-04-01T16:04:59.491Z,74.50
2023-04-01T16:07:57.688Z,74.12
2023-04-01T16:10:54.952Z,74.09
2023-04-01T16:13:39.220Z,73.82
2023-04-01T16:16:25.987Z,73.78
2023-04-01T16:19:25.258Z,74.24
2023-04-01T16:22:03.724Z,73.13
2023-04-01T16:24:43.132Z,72.96
2023-04-01T16:27:21.411Z,72.85
2023-04-01T16:29:59.784Z,72.82
2023-04-01T16:32:42.966Z,72.89
2023-04-01T16:35:32.304Z,72.98
2023-04-01T16:38:13.544Z,72.98
2023-04-01T16:40:55.547Z,73.35
2023-04-01T16:43:33.124Z,73.37
2023-04-01T16:46:24.878Z,73.17
2023-04-01T16:49:16.106Z,72.81
2023-04-01T16:51:56.020Z,73.08
2023-04-01T16:54:38.877Z,73.08
2023-04-01T16:57:24.199Z,72.98
2023-04-01T17:00:06.613Z,72.89
2023-04-01T17:02:47.143Z,72.73
2023-04-01T17:05:19.794Z,72.70
2023-04-01T17:08:08.473Z,72.32
2023-04-01T17:10:51.959Z,72.94
2023-04-01T17:13:36.590Z,72.43
2023-04-01T17:16:55.300Z,72.14
2023-04-01T17:19:43.610Z,72.01
2023-04-01T17:22:33.616Z,71.80
2023-04-01T17:25:27.767Z,71.80
2023-04-01T17:28:07.751Z,72.54
2023-04-01T17:30:50.909Z,72.93
2023-04-01T17:33:41.017Z,72.83
2023-04-01T17:36:24.933Z,72.40
2023-04-01T17:39:19.145Z,72.30
2023-04-01T17:41:56.963Z,71.61
2023-04-01T17:44:49.789Z,71.16
2023-04-01T17:47:46.570Z,71.30
2023-04-01T17:50:29.804Z,71.22
2023-04-01T17:53:24.276Z,71.21
2023-04-01T17:56:11.316Z,71.07
2023-04-01T17:58:50.949Z,71.52
2023-04-01T18:01:37.303Z,71.27
2023-04-01T18:04:27.016Z,70.98
2023-04-01T18:07:22.315Z,70.84
2023-04-01T18:10:10.332Z,70.89
2023-04-01T18:12:59.138Z,70.19
2023-04-01T18:15:39.561Z,70.44
2023-04-01T18:18:36.264Z,70.52
2023-04-01T18:21:18.274Z,70.17
2023-04-01T18:24:02.292Z,69.51
2023-04-01T18:26:39.379Z,69.20
2023-04-01T18:29:26.848Z,69.20
2023-04-01T18:32:15.658Z,69.64
2023-04-01T18:34:57.196Z,69.74
2023-04-01T18:37:33.738Z,69.85
2023-04-01T18:40:19.564Z,69.69
2023-04-01T18:43:02.456Z,69.67
2023-04-01T18:45:40.098Z,69.34
2023-04-01T18:48:25.688Z,68.77
2023-04-01T18:51:03.536Z,68.32
2023-04-01T18:53:48.104Z,68.49
2023-04-01T18:56:31.625Z,68.77
2023-04-01T18:59:13.413Z,68.97
2023-04-01T19:01:55.032Z,68.96
2023-04-01T19:04:37.836Z,69.03
2023-04-01T19:07:43.676Z,69.12
2023-04-01T19:10:29.339Z,68.99
2023-04-01T19:13:18.977Z,69.28
2023-04-01T19:16:02.476Z,69.07
2023-04-01T19:18:56.630Z,68.74
2023-04-01T19:21:36.128Z,68.73
2023-04-01T19:24:50.863Z,68.59
2023-04-01T19:27:35.766Z,68.67
2023-04-01T19:30:20.119Z,68.68
2023-04-01T19:33:04.793Z,68.64
2023-04-01T19:35:45.801Z,68.77
2023-04-01T19:38:29.127Z,69.04
2023-04-01T19:41:08.001Z,69.06
2023-04-01T19:43:52.776Z,69.08
2023-04-01T19:46:33.153Z,69.12
2023-04-01T19:49:24.068Z,69.46
2023-04-01T19:52:06.291Z,69.25
2023-04-01T19:54:46.845Z,68.79
2023-04-01T19:57:30.267Z,68.41
2023-04-01T20:00:09.230Z,68.99
2023-04-01T20:02:59.199Z,68.86
2023-04-01T20:05:48.690Z,68.95
2023-04-01T20:08:31.104Z,69.09
2023-04-01T20:11:16.788Z,69.43
2023-04-01T20:14:00.427Z,69.57
2023-04-01T20:17:05.320Z,70.04
2023-04-01T20:19:45.517Z,70.24
2023-04-01T20:23:02.320Z,69.89
2023-04-01T20:25:42.509Z,69.82
2023-04-01T20:28:27.712Z,69.65
2023-04-01T20:31:12.370Z,69.37
2023-04-01T20:34:10.121Z,69.53
2023-04-01T20:36:57.048Z,69.43
2023-04-01T20:39:47.564Z,68.84
2023-04-01T20:42:45.321Z,69.06
2023-04-01T20:45:35.491Z,69.71
2023-04-01T20:48:47.246Z,69.95
2023-04-01T20:51:24.347Z,69.71
2023-04-01T20:54:08.011Z,69.82
2023-04-01T20:56:48.281Z,70.06
2023-04-01T20:59:53.346Z,70.18
2023-04-01T21:02:39.052Z,70.51
2023-04-01T21:05:41.070Z,69.98
2023-04-01T21:08:24.466Z,69.94
2023-04-01T21:11:04.037Z,69.52
2023-04-01T21:13:52.965Z,69.53
2023-04-01T21:16:36.678Z,69.46
2023-04-01T21:19:23.507Z,69.06
2023-04-01T21:22:13.360Z,69.49
2023-04-01T21:25:10.742Z,69.02
2023-04-01T21:27:57.877Z,68.78
2023-04-01T21:31:04.946Z,68.74
2023-04-01T21:33:52.210Z,68.91
2023-04-01T21:36:47.124Z,68.54
2023-04-01T21:39:36.543Z,68.74
2023-04-01T21:42:22.075Z,69.28
2023-04-01T21:45:05.358Z,68.85
2023-04-01T21:48:18.835Z,68.79
2023-04-01T21:51:08.454Z,68.82
2023-04-01T21:54:22.920Z,68.86
2023-04-01T21:57:25.391Z,68.60
2023-04-01T22:00:19.770Z,68.97
2023-04-01T22:03:28.627Z,68.93
2023-04-01T22:06:11.105Z,68.96
2023-04-01T22:08:52.644Z,68.11
2023-04-01T22:11:35.585Z,67.62
2023-04-01T22:14:13.851Z,67.87
2023-04-01T22:16:55.312Z,67.98
2023-04-01T22:19:38.118Z,67.91
2023-04-01T22:22:19.358Z,67.89
2023-04-01T22:25:02.965Z,67.10
2023-04-01T22:27:43.934Z,67.58
2023-04-01T22:30:24.956Z,67.48
2023-04-01T22:33:04.614Z,68.06
2023-04-01T22:35:43.498Z,68.05
2023-04-01T22:38:26.014Z,68.03
2023-04-01T22:41:08.203Z,67.52
2023-04-01T22:43:44.304Z,67.53
2023-04-01T22:46:38.734Z,67.91
2023-04-01T22:49:17.937Z,68.05
2023-04-01T22:51:55.477Z,67.32
2023-04-01T22:54:36.933Z,66.95
2023-04-01T22:57:16.500Z,67.08
2023-04-01T22:59:55.261Z,67.33
2023-04-01T23:02:32.925Z,66.97
2023-04-01T23:05:11.983Z,67.44
2023-04-01T23:07:50.201Z,67.01
2023-04-01T23:10:28.164Z,66.87
2023-04-01T23:13:04.247Z,67.29
2023-04-01T23:15:38.651Z,67.31
2023-04-01T23:18:15.264Z,67.23
2023-04-01T23:21:01.050Z,66.90
2023-04-01T23:23:47.953Z,67.19
2023-04-01T23:26:27.112Z,67.25
2023-04-01T23:29:01.237Z,67.44
2023-04-01T23:31:44.347Z,67.06
2023-04-01T23:34:30.323Z,66.96
2023-04-01T23:37:07.377Z,66.74
2023-04-01T23:39:42.246Z,66.85
2023-04-01T23:42:21.803Z,66.19
2023-04-01T23:44:57.948Z,66.25
2023-04-01T23:47:35.186Z,66.26
2023-04-01T23:50:13.077Z,66.08
2023-04-01T23:52:49.130Z,65.76
2023-04-01T23:55:24.926Z,66.12
2023-04-01T23:58:16.462Z,66.07
